sensor_id;sensor_type;location;lat;lon;timestamp;P1;durP1;ratioP1;P2;durP2;ratioP2
41921;SDS011;27609;51.002;5.354;2023-01-05T00:01:32;27.13;;;3.95;;
41921;SDS011;27609;51.002;5.354;2023-01-05T00:03:58;35.97;;;4.95;;
41921;SDS011;27609;51.002;5.354;2023-01-05T00:06:24;26.52;;;3.53;;
41921;SDS011;27609;51.002;5.354;2023-01-05T00:08:50;25.50;;;3.83;;
41921;SDS011;27609;51.002;5.354;2023-01-05T00:11:17;25.63;;;4.45;;
41921;SDS011;27609;51.002;5.354;2023-01-05T00:14:03;18.60;;;3.47;;
41921;SDS011;27609;51.002;5.354;2023-01-05T00:16:48;29.15;;;4.03;;
41921;SDS011;27609;51.002;5.354;2023-01-05T00:19:32;20.65;;;4.10;;
41921;SDS011;27609;51.002;5.354;2023-01-05T00:24:56;26.85;;;4.18;;
41921;SDS011;27609;51.002;5.354;2023-01-05T00:27:24;26.77;;;4.35;;
41921;SDS011;27609;51.002;5.354;2023-01-05T00:29:50;31.42;;;4.28;;
41921;SDS011;27609;51.002;5.354;2023-01-05T00:32:16;34.35;;;4.85;;
41921;SDS011;27609;51.002;5.354;2023-01-05T00:34:41;32.42;;;4.75;;
41921;SDS011;27609;51.002;5.354;2023-01-05T00:37:07;30.85;;;4.70;;
41921;SDS011;27609;51.002;5.354;2023-01-05T00:39:33;30.10;;;4.70;;
41921;SDS011;27609;51.002;5.354;2023-01-05T00:41:58;29.88;;;4.55;;
41921;SDS011;27609;51.002;5.354;2023-01-05T00:44:24;28.92;;;4.95;;
41921;SDS011;27609;51.002;5.354;2023-01-05T00:46:50;27.73;;;4.63;;
41921;SDS011;27609;51.002;5.354;2023-01-05T00:49:15;25.23;;;3.88;;
41921;SDS011;27609;51.002;5.354;2023-01-05T00:51:41;28.60;;;4.55;;
41921;SDS011;27609;51.002;5.354;2023-01-05T00:54:07;21.00;;;4.20;;
41921;SDS011;27609;51.002;5.354;2023-01-05T00:56:32;34.65;;;6.10;;
41921;SDS011;27609;51.002;5.354;2023-01-05T00:58:58;24.63;;;3.90;;
41921;SDS011;27609;51.002;5.354;2023-01-05T01:01:24;23.40;;;4.32;;
41921;SDS011;27609;51.002;5.354;2023-01-05T01:03:49;31.63;;;5.72;;
41921;SDS011;27609;51.002;5.354;2023-01-05T01:06:15;28.75;;;4.57;;
41921;SDS011;27609;51.002;5.354;2023-01-05T01:08:42;23.42;;;3.70;;
41921;SDS011;27609;51.002;5.354;2023-01-05T01:11:08;28.73;;;5.93;;
41921;SDS011;27609;51.002;5.354;2023-01-05T01:13:35;34.22;;;4.72;;
41921;SDS011;27609;51.002;5.354;2023-01-05T01:16:10;25.30;;;4.65;;
41921;SDS011;27609;51.002;5.354;2023-01-05T01:18:37;25.33;;;3.90;;
41921;SDS011;27609;51.002;5.354;2023-01-05T01:21:04;26.73;;;4.40;;
41921;SDS011;27609;51.002;5.354;2023-01-05T01:23:30;28.88;;;4.30;;
41921;SDS011;27609;51.002;5.354;2023-01-05T01:25:57;33.67;;;4.68;;
41921;SDS011;27609;51.002;5.354;2023-01-05T01:28:27;31.38;;;4.72;;
41921;SDS011;27609;51.002;5.354;2023-01-05T01:30:53;34.35;;;4.85;;
41921;SDS011;27609;51.002;5.354;2023-01-05T01:33:18;31.23;;;5.40;;
41921;SDS011;27609;51.002;5.354;2023-01-05T01:35:44;29.85;;;5.35;;
41921;SDS011;27609;51.002;5.354;2023-01-05T01:38:10;33.10;;;5.28;;
41921;SDS011;27609;51.002;5.354;2023-01-05T01:40:42;35.30;;;4.95;;
41921;SDS011;27609;51.002;5.354;2023-01-05T01:43:19;39.08;;;4.65;;
41921;SDS011;27609;51.002;5.354;2023-01-05T01:46:04;31.98;;;4.57;;
41921;SDS011;27609;51.002;5.354;2023-01-05T01:48:30;29.50;;;4.43;;
41921;SDS011;27609;51.002;5.354;2023-01-05T01:50:57;33.42;;;4.75;;
41921;SDS011;27609;51.002;5.354;2023-01-05T01:53:30;19.58;;;4.22;;
41921;SDS011;27609;51.002;5.354;2023-01-05T01:58:28;29.73;;;4.78;;
41921;SDS011;27609;51.002;5.354;2023-01-05T02:00:56;28.73;;;4.57;;
41921;SDS011;27609;51.002;5.354;2023-01-05T02:03:25;25.73;;;3.92;;
41921;SDS011;27609;51.002;5.354;2023-01-05T02:05:52;26.90;;;4.40;;
41921;SDS011;27609;51.002;5.354;2023-01-05T02:08:18;28.40;;;4.68;;
41921;SDS011;27609;51.002;5.354;2023-01-05T02:11:11;25.73;;;4.68;;
41921;SDS011;27609;51.002;5.354;2023-01-05T02:16:50;31.15;;;4.40;;
41921;SDS011;27609;51.002;5.354;2023-01-05T02:22:58;25.30;;;4.88;;
41921;SDS011;27609;51.002;5.354;2023-01-05T02:28:42;29.85;;;4.88;;
41921;SDS011;27609;51.002;5.354;2023-01-05T02:31:39;29.45;;;4.38;;
41921;SDS011;27609;51.002;5.354;2023-01-05T02:37:06;28.92;;;4.13;;
41921;SDS011;27609;51.002;5.354;2023-01-05T02:42:13;25.40;;;4.45;;
41921;SDS011;27609;51.002;5.354;2023-01-05T02:44:51;26.35;;;4.00;;
41921;SDS011;27609;51.002;5.354;2023-01-05T02:49:56;30.58;;;5.15;;
41921;SDS011;27609;51.002;5.354;2023-01-05T02:52:43;27.50;;;5.65;;
41921;SDS011;27609;51.002;5.354;2023-01-05T02:55:22;27.30;;;5.05;;
41921;SDS011;27609;51.002;5.354;2023-01-05T02:58:02;20.98;;;3.70;;
41921;SDS011;27609;51.002;5.354;2023-01-05T03:00:35;26.60;;;3.97;;
41921;SDS011;27609;51.002;5.354;2023-01-05T03:03:11;22.67;;;3.85;;
41921;SDS011;27609;51.002;5.354;2023-01-05T03:05:43;27.50;;;5.47;;
41921;SDS011;27609;51.002;5.354;2023-01-05T03:08:25;24.60;;;5.30;;
41921;SDS011;27609;51.002;5.354;2023-01-05T03:10:59;20.35;;;3.80;;
41921;SDS011;27609;51.002;5.354;2023-01-05T03:13:47;30.38;;;4.85;;
41921;SDS011;27609;51.002;5.354;2023-01-05T03:16:21;29.40;;;4.70;;
41921;SDS011;27609;51.002;5.354;2023-01-05T03:18:53;33.58;;;4.43;;
41921;SDS011;27609;51.002;5.354;2023-01-05T03:21:39;30.90;;;4.88;;
41921;SDS011;27609;51.002;5.354;2023-01-05T03:24:24;35.45;;;5.35;;
41921;SDS011;27609;51.002;5.354;2023-01-05T03:27:08;34.25;;;5.43;;
41921;SDS011;27609;51.002;5.354;2023-01-05T03:29:53;25.48;;;4.85;;
41921;SDS011;27609;51.002;5.354;2023-01-05T03:32:51;28.13;;;5.38;;
41921;SDS011;27609;51.002;5.354;2023-01-05T03:35:42;25.58;;;3.97;;
41921;SDS011;27609;51.002;5.354;2023-01-05T03:38:30;27.83;;;4.78;;
41921;SDS011;27609;51.002;5.354;2023-01-05T03:41:03;22.48;;;3.45;;
41921;SDS011;27609;51.002;5.354;2023-01-05T03:43:34;20.77;;;4.55;;
41921;SDS011;27609;51.002;5.354;2023-01-05T03:46:00;25.65;;;4.70;;
41921;SDS011;27609;51.002;5.354;2023-01-05T03:48:35;28.00;;;4.25;;
41921;SDS011;27609;51.002;5.354;2023-01-05T03:51:01;36.35;;;5.43;;
41921;SDS011;27609;51.002;5.354;2023-01-05T03:53:27;26.13;;;4.35;;
41921;SDS011;27609;51.002;5.354;2023-01-05T03:55:52;29.30;;;4.00;;
41921;SDS011;27609;51.002;5.354;2023-01-05T03:58:18;24.85;;;4.95;;
41921;SDS011;27609;51.002;5.354;2023-01-05T04:00:44;37.67;;;5.35;;
41921;SDS011;27609;51.002;5.354;2023-01-05T04:03:09;40.50;;;5.28;;
41921;SDS011;27609;51.002;5.354;2023-01-05T04:05:35;31.67;;;4.80;;
41921;SDS011;27609;51.002;5.354;2023-01-05T04:08:01;35.72;;;5.10;;
41921;SDS011;27609;51.002;5.354;2023-01-05T04:10:26;32.90;;;4.97;;
41921;SDS011;27609;51.002;5.354;2023-01-05T04:12:52;32.60;;;4.40;;
41921;SDS011;27609;51.002;5.354;2023-01-05T04:15:18;27.42;;;5.40;;
41921;SDS011;27609;51.002;5.354;2023-01-05T04:17:43;26.13;;;5.00;;
41921;SDS011;27609;51.002;5.354;2023-01-05T04:20:09;34.28;;;5.63;;
41921;SDS011;27609;51.002;5.354;2023-01-05T04:22:35;39.63;;;6.03;;
41921;SDS011;27609;51.002;5.354;2023-01-05T04:25:01;32.42;;;5.45;;
41921;SDS011;27609;51.002;5.354;2023-01-05T04:27:26;36.55;;;4.82;;
41921;SDS011;27609;51.002;5.354;2023-01-05T04:29:52;31.20;;;4.43;;
41921;SDS011;27609;51.002;5.354;2023-01-05T04:32:18;33.78;;;5.28;;
41921;SDS011;27609;51.002;5.354;2023-01-05T04:34:43;34.75;;;4.97;;
41921;SDS011;27609;51.002;5.354;2023-01-05T04:37:09;36.95;;;5.47;;
41921;SDS011;27609;51.002;5.354;2023-01-05T04:39:35;34.85;;;4.80;;
41921;SDS011;27609;51.002;5.354;2023-01-05T04:42:00;35.92;;;5.45;;
41921;SDS011;27609;51.002;5.354;2023-01-05T04:44:26;32.13;;;5.80;;
41921;SDS011;27609;51.002;5.354;2023-01-05T04:46:51;28.38;;;5.65;;
41921;SDS011;27609;51.002;5.354;2023-01-05T04:49:17;31.60;;;4.93;;
41921;SDS011;27609;51.002;5.354;2023-01-05T04:51:43;25.77;;;4.22;;
41921;SDS011;27609;51.002;5.354;2023-01-05T04:54:08;34.95;;;5.07;;
41921;SDS011;27609;51.002;5.354;2023-01-05T04:56:34;42.20;;;6.13;;
41921;SDS011;27609;51.002;5.354;2023-01-05T04:59:00;32.22;;;5.05;;
41921;SDS011;27609;51.002;5.354;2023-01-05T05:01:25;31.42;;;5.43;;
41921;SDS011;27609;51.002;5.354;2023-01-05T05:03:51;25.38;;;4.53;;
41921;SDS011;27609;51.002;5.354;2023-01-05T05:06:17;30.83;;;5.82;;
41921;SDS011;27609;51.002;5.354;2023-01-05T05:08:43;34.78;;;4.88;;
41921;SDS011;27609;51.002;5.354;2023-01-05T05:11:09;28.17;;;4.97;;
41921;SDS011;27609;51.002;5.354;2023-01-05T05:13:34;28.42;;;5.28;;
41921;SDS011;27609;51.002;5.354;2023-01-05T05:16:00;35.83;;;5.20;;
41921;SDS011;27609;51.002;5.354;2023-01-05T05:18:25;30.45;;;4.75;;
41921;SDS011;27609;51.002;5.354;2023-01-05T05:20:52;30.00;;;5.57;;
41921;SDS011;27609;51.002;5.354;2023-01-05T05:23:18;31.52;;;5.15;;
41921;SDS011;27609;51.002;5.354;2023-01-05T05:25:43;31.23;;;4.53;;
41921;SDS011;27609;51.002;5.354;2023-01-05T05:28:09;36.15;;;6.18;;
41921;SDS011;27609;51.002;5.354;2023-01-05T05:30:38;25.50;;;4.47;;
41921;SDS011;27609;51.002;5.354;2023-01-05T05:33:04;32.35;;;5.63;;
41921;SDS011;27609;51.002;5.354;2023-01-05T05:35:30;31.08;;;4.80;;
41921;SDS011;27609;51.002;5.354;2023-01-05T05:37:56;34.28;;;5.45;;
41921;SDS011;27609;51.002;5.354;2023-01-05T05:40:21;27.92;;;5.95;;
41921;SDS011;27609;51.002;5.354;2023-01-05T05:42:47;31.13;;;5.00;;
41921;SDS011;27609;51.002;5.354;2023-01-05T05:45:13;25.73;;;5.22;;
41921;SDS011;27609;51.002;5.354;2023-01-05T05:47:38;33.13;;;4.80;;
41921;SDS011;27609;51.002;5.354;2023-01-05T05:50:04;33.50;;;4.75;;
41921;SDS011;27609;51.002;5.354;2023-01-05T05:52:30;28.42;;;4.93;;
41921;SDS011;27609;51.002;5.354;2023-01-05T05:54:56;33.28;;;5.32;;
41921;SDS011;27609;51.002;5.354;2023-01-05T05:57:21;38.10;;;6.15;;
41921;SDS011;27609;51.002;5.354;2023-01-05T05:59:47;27.73;;;4.72;;
41921;SDS011;27609;51.002;5.354;2023-01-05T06:02:13;33.28;;;4.85;;
41921;SDS011;27609;51.002;5.354;2023-01-05T06:04:39;24.80;;;4.35;;
41921;SDS011;27609;51.002;5.354;2023-01-05T06:07:04;31.58;;;5.88;;
41921;SDS011;27609;51.002;5.354;2023-01-05T06:09:30;34.10;;;5.38;;
41921;SDS011;27609;51.002;5.354;2023-01-05T06:11:55;39.55;;;5.28;;
41921;SDS011;27609;51.002;5.354;2023-01-05T06:14:21;41.20;;;5.70;;
41921;SDS011;27609;51.002;5.354;2023-01-05T06:16:47;23.23;;;4.72;;
41921;SDS011;27609;51.002;5.354;2023-01-05T06:19:12;33.30;;;5.30;;
41921;SDS011;27609;51.002;5.354;2023-01-05T06:21:38;32.35;;;6.25;;
41921;SDS011;27609;51.002;5.354;2023-01-05T06:24:04;33.90;;;7.60;;
41921;SDS011;27609;51.002;5.354;2023-01-05T06:26:29;30.42;;;5.53;;
41921;SDS011;27609;51.002;5.354;2023-01-05T06:28:55;28.77;;;4.75;;
41921;SDS011;27609;51.002;5.354;2023-01-05T06:31:23;35.90;;;5.22;;
41921;SDS011;27609;51.002;5.354;2023-01-05T06:33:48;31.15;;;5.78;;
41921;SDS011;27609;51.002;5.354;2023-01-05T06:36:14;33.72;;;6.20;;
41921;SDS011;27609;51.002;5.354;2023-01-05T06:38:40;31.33;;;4.60;;
41921;SDS011;27609;51.002;5.354;2023-01-05T06:41:05;32.72;;;5.68;;
41921;SDS011;27609;51.002;5.354;2023-01-05T06:43:31;31.95;;;5.85;;
41921;SDS011;27609;51.002;5.354;2023-01-05T06:45:57;37.75;;;5.53;;
41921;SDS011;27609;51.002;5.354;2023-01-05T06:48:22;32.65;;;4.53;;
41921;SDS011;27609;51.002;5.354;2023-01-05T06:50:48;24.60;;;4.82;;
41921;SDS011;27609;51.002;5.354;2023-01-05T06:53:14;31.80;;;6.05;;
41921;SDS011;27609;51.002;5.354;2023-01-05T06:55:39;26.55;;;4.53;;
41921;SDS011;27609;51.002;5.354;2023-01-05T06:58:05;32.42;;;5.32;;
41921;SDS011;27609;51.002;5.354;2023-01-05T07:00:31;23.63;;;4.45;;
41921;SDS011;27609;51.002;5.354;2023-01-05T07:02:56;29.60;;;4.63;;
41921;SDS011;27609;51.002;5.354;2023-01-05T07:05:22;38.70;;;5.97;;
41921;SDS011;27609;51.002;5.354;2023-01-05T07:07:48;36.20;;;5.65;;
41921;SDS011;27609;51.002;5.354;2023-01-05T07:10:14;36.42;;;6.05;;
41921;SDS011;27609;51.002;5.354;2023-01-05T07:12:40;25.48;;;5.28;;
41921;SDS011;27609;51.002;5.354;2023-01-05T07:15:06;29.65;;;5.35;;
41921;SDS011;27609;51.002;5.354;2023-01-05T07:17:32;33.38;;;6.00;;
41921;SDS011;27609;51.002;5.354;2023-01-05T07:19:58;29.20;;;4.65;;
41921;SDS011;27609;51.002;5.354;2023-01-05T07:22:24;28.90;;;5.25;;
41921;SDS011;27609;51.002;5.354;2023-01-05T07:24:49;39.63;;;7.20;;
41921;SDS011;27609;51.002;5.354;2023-01-05T07:27:15;42.53;;;6.88;;
41921;SDS011;27609;51.002;5.354;2023-01-05T07:29:41;51.17;;;7.13;;
41921;SDS011;27609;51.002;5.354;2023-01-05T07:32:06;25.42;;;5.63;;
41921;SDS011;27609;51.002;5.354;2023-01-05T07:34:32;32.05;;;5.93;;
41921;SDS011;27609;51.002;5.354;2023-01-05T07:36:57;44.80;;;5.80;;
41921;SDS011;27609;51.002;5.354;2023-01-05T07:39:23;43.08;;;5.57;;
41921;SDS011;27609;51.002;5.354;2023-01-05T07:41:49;39.63;;;6.10;;
41921;SDS011;27609;51.002;5.354;2023-01-05T07:44:14;36.22;;;5.68;;
41921;SDS011;27609;51.002;5.354;2023-01-05T07:46:40;36.58;;;5.93;;
41921;SDS011;27609;51.002;5.354;2023-01-05T07:49:05;36.28;;;5.95;;
41921;SDS011;27609;51.002;5.354;2023-01-05T07:51:31;36.88;;;7.10;;
41921;SDS011;27609;51.002;5.354;2023-01-05T07:53:57;38.38;;;5.10;;
41921;SDS011;27609;51.002;5.354;2023-01-05T07:56:22;42.78;;;5.65;;
41921;SDS011;27609;51.002;5.354;2023-01-05T07:58:48;33.08;;;5.18;;
41921;SDS011;27609;51.002;5.354;2023-01-05T08:01:14;25.75;;;5.72;;
41921;SDS011;27609;51.002;5.354;2023-01-05T08:03:42;37.30;;;5.72;;
41921;SDS011;27609;51.002;5.354;2023-01-05T08:06:09;42.53;;;6.35;;
41921;SDS011;27609;51.002;5.354;2023-01-05T08:08:37;35.53;;;5.35;;
41921;SDS011;27609;51.002;5.354;2023-01-05T08:11:03;37.30;;;5.47;;
41921;SDS011;27609;51.002;5.354;2023-01-05T08:13:29;37.03;;;5.93;;
41921;SDS011;27609;51.002;5.354;2023-01-05T08:16:13;46.85;;;7.15;;
41921;SDS011;27609;51.002;5.354;2023-01-05T08:18:39;33.22;;;6.28;;
41921;SDS011;27609;51.002;5.354;2023-01-05T08:21:04;36.45;;;5.57;;
41921;SDS011;27609;51.002;5.354;2023-01-05T08:23:32;31.08;;;5.05;;
41921;SDS011;27609;51.002;5.354;2023-01-05T08:26:03;40.35;;;6.38;;
41921;SDS011;27609;51.002;5.354;2023-01-05T08:28:30;38.30;;;6.57;;
41921;SDS011;27609;51.002;5.354;2023-01-05T08:31:03;37.38;;;5.70;;
41921;SDS011;27609;51.002;5.354;2023-01-05T08:33:31;36.95;;;6.53;;
41921;SDS011;27609;51.002;5.354;2023-01-05T08:35:57;36.85;;;5.75;;
41921;SDS011;27609;51.002;5.354;2023-01-05T08:38:23;27.75;;;5.03;;
41921;SDS011;27609;51.002;5.354;2023-01-05T08:40:49;29.00;;;5.57;;
41921;SDS011;27609;51.002;5.354;2023-01-05T08:43:15;35.40;;;5.55;;
41921;SDS011;27609;51.002;5.354;2023-01-05T08:45:40;26.23;;;5.15;;
41921;SDS011;27609;51.002;5.354;2023-01-05T08:48:06;30.98;;;6.45;;
41921;SDS011;27609;51.002;5.354;2023-01-05T08:50:34;33.35;;;5.65;;
41921;SDS011;27609;51.002;5.354;2023-01-05T08:53:00;35.40;;;6.03;;
41921;SDS011;27609;51.002;5.354;2023-01-05T08:55:26;38.35;;;6.20;;
41921;SDS011;27609;51.002;5.354;2023-01-05T08:57:51;30.40;;;5.28;;
41921;SDS011;27609;51.002;5.354;2023-01-05T09:00:17;30.70;;;5.35;;
41921;SDS011;27609;51.002;5.354;2023-01-05T09:02:47;37.00;;;6.27;;
41921;SDS011;27609;51.002;5.354;2023-01-05T09:05:12;31.25;;;4.50;;
41921;SDS011;27609;51.002;5.354;2023-01-05T09:07:38;35.67;;;5.80;;
41921;SDS011;27609;51.002;5.354;2023-01-05T09:10:04;32.03;;;5.78;;
41921;SDS011;27609;51.002;5.354;2023-01-05T09:12:33;32.30;;;5.93;;
41921;SDS011;27609;51.002;5.354;2023-01-05T09:14:59;29.08;;;5.22;;
41921;SDS011;27609;51.002;5.354;2023-01-05T09:17:25;38.80;;;5.97;;
41921;SDS011;27609;51.002;5.354;2023-01-05T09:19:50;35.20;;;5.78;;
41921;SDS011;27609;51.002;5.354;2023-01-05T09:22:16;27.83;;;5.85;;
41921;SDS011;27609;51.002;5.354;2023-01-05T09:24:42;31.67;;;6.57;;
41921;SDS011;27609;51.002;5.354;2023-01-05T09:27:09;38.63;;;5.90;;
41921;SDS011;27609;51.002;5.354;2023-01-05T09:29:35;41.20;;;5.32;;
41921;SDS011;27609;51.002;5.354;2023-01-05T09:32:01;47.92;;;7.00;;
41921;SDS011;27609;51.002;5.354;2023-01-05T09:34:27;33.65;;;5.30;;
41921;SDS011;27609;51.002;5.354;2023-01-05T09:36:52;34.90;;;7.18;;
41921;SDS011;27609;51.002;5.354;2023-01-05T09:39:18;32.85;;;7.13;;
41921;SDS011;27609;51.002;5.354;2023-01-05T09:41:51;33.95;;;6.78;;
41921;SDS011;27609;51.002;5.354;2023-01-05T09:47:01;40.38;;;5.70;;
41921;SDS011;27609;51.002;5.354;2023-01-05T09:49:37;33.22;;;5.60;;
41921;SDS011;27609;51.002;5.354;2023-01-05T09:52:05;25.92;;;4.88;;
41921;SDS011;27609;51.002;5.354;2023-01-05T09:54:39;30.50;;;6.05;;
41921;SDS011;27609;51.002;5.354;2023-01-05T09:57:07;40.80;;;6.90;;
41921;SDS011;27609;51.002;5.354;2023-01-05T09:59:43;33.50;;;5.57;;
41921;SDS011;27609;51.002;5.354;2023-01-05T10:04:42;39.78;;;6.32;;
41921;SDS011;27609;51.002;5.354;2023-01-05T10:07:14;43.53;;;6.85;;
41921;SDS011;27609;51.002;5.354;2023-01-05T10:09:56;41.15;;;7.18;;
41921;SDS011;27609;51.002;5.354;2023-01-05T10:12:30;42.92;;;6.13;;
41921;SDS011;27609;51.002;5.354;2023-01-05T10:15:24;31.20;;;4.88;;
41921;SDS011;27609;51.002;5.354;2023-01-05T10:17:51;32.30;;;5.75;;
41921;SDS011;27609;51.002;5.354;2023-01-05T10:23:13;36.83;;;5.65;;
41921;SDS011;27609;51.002;5.354;2023-01-05T10:25:51;31.05;;;5.82;;
41921;SDS011;27609;51.002;5.354;2023-01-05T10:28:43;37.92;;;5.80;;
41921;SDS011;27609;51.002;5.354;2023-01-05T10:39:46;29.98;;;5.53;;
41921;SDS011;27609;51.002;5.354;2023-01-05T10:45:27;38.95;;;5.72;;
41921;SDS011;27609;51.002;5.354;2023-01-05T10:47:54;33.67;;;5.10;;
41921;SDS011;27609;51.002;5.354;2023-01-05T10:52:51;39.92;;;7.20;;
41921;SDS011;27609;51.002;5.354;2023-01-05T10:55:19;33.60;;;5.85;;
41921;SDS011;27609;51.002;5.354;2023-01-05T10:57:45;42.25;;;6.60;;
41921;SDS011;27609;51.002;5.354;2023-01-05T11:00:19;45.65;;;6.15;;
41921;SDS011;27609;51.002;5.354;2023-01-05T11:03:20;35.08;;;6.43;;
41921;SDS011;27609;51.002;5.354;2023-01-05T11:05:41;38.22;;;6.30;;
41921;SDS011;27609;51.002;5.354;2023-01-05T11:08:16;35.20;;;7.22;;
41921;SDS011;27609;51.002;5.354;2023-01-05T11:10:48;45.72;;;6.85;;
41921;SDS011;27609;51.002;5.354;2023-01-05T11:13:18;32.72;;;5.13;;
41921;SDS011;27609;51.002;5.354;2023-01-05T11:15:56;43.13;;;6.47;;
41921;SDS011;27609;51.002;5.354;2023-01-05T11:18:37;33.63;;;6.25;;
41921;SDS011;27609;51.002;5.354;2023-01-05T11:21:10;29.15;;;5.95;;
41921;SDS011;27609;51.002;5.354;2023-01-05T11:23:58;26.73;;;5.38;;
41921;SDS011;27609;51.002;5.354;2023-01-05T11:32:12;27.33;;;5.28;;
41921;SDS011;27609;51.002;5.354;2023-01-05T11:36:51;40.08;;;6.45;;
41921;SDS011;27609;51.002;5.354;2023-01-05T11:39:52;42.72;;;6.70;;
41921;SDS011;27609;51.002;5.354;2023-01-05T11:42:20;29.23;;;5.20;;
41921;SDS011;27609;51.002;5.354;2023-01-05T11:44:56;31.05;;;5.07;;
41921;SDS011;27609;51.002;5.354;2023-01-05T11:47:29;36.58;;;5.88;;
41921;SDS011;27609;51.002;5.354;2023-01-05T11:52:40;39.22;;;6.50;;
41921;SDS011;27609;51.002;5.354;2023-01-05T11:55:30;35.60;;;5.95;;
41921;SDS011;27609;51.002;5.354;2023-01-05T12:06:23;26.92;;;5.00;;
41921;SDS011;27609;51.002;5.354;2023-01-05T12:17:43;32.03;;;6.03;;
41921;SDS011;27609;51.002;5.354;2023-01-05T12:23:01;32.38;;;6.20;;
41921;SDS011;27609;51.002;5.354;2023-01-05T12:28:45;42.50;;;5.68;;
41921;SDS011;27609;51.002;5.354;2023-01-05T12:42:32;27.95;;;6.30;;
41921;SDS011;27609;51.002;5.354;2023-01-05T12:45:53;28.58;;;6.82;;
41921;SDS011;27609;51.002;5.354;2023-01-05T12:53:54;28.13;;;4.80;;
41921;SDS011;27609;51.002;5.354;2023-01-05T12:56:30;28.83;;;4.72;;
41921;SDS011;27609;51.002;5.354;2023-01-05T12:59:16;26.73;;;4.78;;
41921;SDS011;27609;51.002;5.354;2023-01-05T13:04:26;23.60;;;4.60;;
41921;SDS011;27609;51.002;5.354;2023-01-05T13:07:10;32.63;;;5.10;;
41921;SDS011;27609;51.002;5.354;2023-01-05T13:09:41;34.30;;;6.10;;
41921;SDS011;27609;51.002;5.354;2023-01-05T13:12:10;32.63;;;5.90;;
41921;SDS011;27609;51.002;5.354;2023-01-05T13:14:40;32.33;;;5.28;;
41921;SDS011;27609;51.002;5.354;2023-01-05T13:17:27;30.17;;;5.63;;
41921;SDS011;27609;51.002;5.354;2023-01-05T13:22:45;23.13;;;4.20;;
41921;SDS011;27609;51.002;5.354;2023-01-05T13:25:16;29.67;;;5.18;;
41921;SDS011;27609;51.002;5.354;2023-01-05T13:27:43;34.03;;;6.07;;
41921;SDS011;27609;51.002;5.354;2023-01-05T13:30:52;31.67;;;6.05;;
41921;SDS011;27609;51.002;5.354;2023-01-05T13:53:05;41.97;;;7.45;;
41921;SDS011;27609;51.002;5.354;2023-01-05T13:58:27;25.40;;;6.63;;
41921;SDS011;27609;51.002;5.354;2023-01-05T14:01:06;39.70;;;7.53;;
41921;SDS011;27609;51.002;5.354;2023-01-05T14:03:36;35.90;;;7.05;;
41921;SDS011;27609;51.002;5.354;2023-01-05T14:06:13;43.47;;;8.43;;
41921;SDS011;27609;51.002;5.354;2023-01-05T14:08:50;38.58;;;6.25;;
41921;SDS011;27609;51.002;5.354;2023-01-05T14:11:24;30.92;;;7.35;;
41921;SDS011;27609;51.002;5.354;2023-01-05T14:13:54;28.50;;;6.05;;
41921;SDS011;27609;51.002;5.354;2023-01-05T14:32:17;38.35;;;6.20;;
41921;SDS011;27609;51.002;5.354;2023-01-05T14:34:49;30.17;;;5.90;;
41921;SDS011;27609;51.002;5.354;2023-01-05T14:39:53;46.92;;;9.10;;
41921;SDS011;27609;51.002;5.354;2023-01-05T14:45:00;44.08;;;9.32;;
41921;SDS011;27609;51.002;5.354;2023-01-05T14:47:53;47.55;;;10.18;;
41921;SDS011;27609;51.002;5.354;2023-01-05T14:50:30;39.83;;;9.68;;
41921;SDS011;27609;51.002;5.354;2023-01-05T14:52:59;59.80;;;10.45;;
41921;SDS011;27609;51.002;5.354;2023-01-05T14:55:32;37.58;;;8.38;;
41921;SDS011;27609;51.002;5.354;2023-01-05T15:01:23;53.38;;;13.60;;
41921;SDS011;27609;51.002;5.354;2023-01-05T15:04:11;55.38;;;17.10;;
41921;SDS011;27609;51.002;5.354;2023-01-05T15:09:42;51.75;;;10.95;;
41921;SDS011;27609;51.002;5.354;2023-01-05T15:23:38;27.35;;;5.43;;
41921;SDS011;27609;51.002;5.354;2023-01-05T15:26:56;34.15;;;6.85;;
41921;SDS011;27609;51.002;5.354;2023-01-05T15:32:20;41.15;;;7.97;;
41921;SDS011;27609;51.002;5.354;2023-01-05T15:37:36;31.13;;;7.45;;
41921;SDS011;27609;51.002;5.354;2023-01-05T15:40:04;29.55;;;6.53;;
41921;SDS011;27609;51.002;5.354;2023-01-05T15:42:58;25.08;;;6.38;;
41921;SDS011;27609;51.002;5.354;2023-01-05T15:45:28;31.73;;;6.45;;
41921;SDS011;27609;51.002;5.354;2023-01-05T15:48:08;32.65;;;6.97;;
41921;SDS011;27609;51.002;5.354;2023-01-05T15:50:46;26.70;;;7.35;;
41921;SDS011;27609;51.002;5.354;2023-01-05T15:55:51;32.90;;;8.10;;
41921;SDS011;27609;51.002;5.354;2023-01-05T15:58:17;33.17;;;9.43;;
41921;SDS011;27609;51.002;5.354;2023-01-05T16:00:46;23.67;;;6.63;;
41921;SDS011;27609;51.002;5.354;2023-01-05T16:03:37;28.20;;;6.50;;
41921;SDS011;27609;51.002;5.354;2023-01-05T16:06:06;22.27;;;7.40;;
41921;SDS011;27609;51.002;5.354;2023-01-05T16:08:48;31.27;;;8.40;;
41921;SDS011;27609;51.002;5.354;2023-01-05T16:11:29;33.58;;;10.35;;
41921;SDS011;27609;51.002;5.354;2023-01-05T16:14:02;34.40;;;9.98;;
41921;SDS011;27609;51.002;5.354;2023-01-05T16:16:35;34.95;;;11.00;;
41921;SDS011;27609;51.002;5.354;2023-01-05T16:19:05;33.90;;;9.32;;
41921;SDS011;27609;51.002;5.354;2023-01-05T16:21:41;28.42;;;9.10;;
41921;SDS011;27609;51.002;5.354;2023-01-05T16:27:11;34.17;;;8.82;;
41921;SDS011;27609;51.002;5.354;2023-01-05T16:40:33;38.17;;;11.43;;
41921;SDS011;27609;51.002;5.354;2023-01-05T16:43:00;28.40;;;11.18;;
41921;SDS011;27609;51.002;5.354;2023-01-05T16:45:29;27.52;;;11.40;;
41921;SDS011;27609;51.002;5.354;2023-01-05T16:47:56;30.98;;;12.27;;
41921;SDS011;27609;51.002;5.354;2023-01-05T16:53:10;30.50;;;12.13;;
41921;SDS011;27609;51.002;5.354;2023-01-05T16:55:38;29.58;;;13.15;;
41921;SDS011;27609;51.002;5.354;2023-01-05T16:58:05;27.50;;;10.85;;
41921;SDS011;27609;51.002;5.354;2023-01-05T17:03:47;25.30;;;11.50;;
41921;SDS011;27609;51.002;5.354;2023-01-05T17:08:55;27.10;;;10.90;;
41921;SDS011;27609;51.002;5.354;2023-01-05T17:11:25;28.17;;;10.50;;
41921;SDS011;27609;51.002;5.354;2023-01-05T17:14:01;19.33;;;10.70;;
41921;SDS011;27609;51.002;5.354;2023-01-05T17:16:28;20.65;;;9.77;;
41921;SDS011;27609;51.002;5.354;2023-01-05T17:18:54;17.42;;;9.90;;
41921;SDS011;27609;51.002;5.354;2023-01-05T17:21:24;20.30;;;10.32;;
41921;SDS011;27609;51.002;5.354;2023-01-05T17:23:53;23.80;;;11.32;;
41921;SDS011;27609;51.002;5.354;2023-01-05T17:26:24;14.63;;;11.48;;
41921;SDS011;27609;51.002;5.354;2023-01-05T17:28:54;17.75;;;12.27;;
41921;SDS011;27609;51.002;5.354;2023-01-05T17:31:22;20.85;;;10.95;;
41921;SDS011;27609;51.002;5.354;2023-01-05T17:33:48;18.65;;;10.80;;
41921;SDS011;27609;51.002;5.354;2023-01-05T17:36:13;21.23;;;12.95;;
41921;SDS011;27609;51.002;5.354;2023-01-05T17:38:39;27.30;;;12.52;;
41921;SDS011;27609;51.002;5.354;2023-01-05T17:41:05;28.58;;;12.05;;
41921;SDS011;27609;51.002;5.354;2023-01-05T17:43:30;24.05;;;11.98;;
41921;SDS011;27609;51.002;5.354;2023-01-05T17:45:56;23.65;;;11.77;;
41921;SDS011;27609;51.002;5.354;2023-01-05T17:48:22;15.52;;;11.25;;
41921;SDS011;27609;51.002;5.354;2023-01-05T17:50:48;17.98;;;11.35;;
41921;SDS011;27609;51.002;5.354;2023-01-05T17:53:14;15.90;;;10.40;;
41921;SDS011;27609;51.002;5.354;2023-01-05T17:55:40;22.20;;;13.20;;
41921;SDS011;27609;51.002;5.354;2023-01-05T17:58:08;16.73;;;10.25;;
41921;SDS011;27609;51.002;5.354;2023-01-05T18:00:36;19.50;;;10.68;;
41921;SDS011;27609;51.002;5.354;2023-01-05T18:03:09;16.95;;;10.32;;
41921;SDS011;27609;51.002;5.354;2023-01-05T18:05:45;18.08;;;10.60;;